KLQK

Pickens County Airport

Pickens, South Carolina, USA
METAR KLQK 210655Z AUTO 00000KT 4SM BR SCT002 18/18 A3013 RMK AO2 T01750175
Observed Flight Rules
May-21 @ 06:55 UTC (23 minutes ago) Marginal Visual Flight Rules
Visibility Clouds Conditions
4 miles
  • Scattered at 200' AGL
  • Mist
Temperatures Readings
Current 18°C / 64°F
Dewpoint 18°C / 64°F
Humidity 100%
Altimeter 30.13" Hg
Pressure 1020 hPa
Elevation 309
METAR KLQK 210655Z AUTO 00000KT 4SM BR SCT002 18/18 A3013 RMK AO2 T01750175
Observed Flight Rules
May-21 @ 06:55 UTC
(23 minutes ago)
MVFR
Clouds
  • Scattered at 200' AGL
Conditions
  • Mist
Temperature Dewpoint
18°C / 64°F 18°C / 64°F
Humidity Altimeter Pressure
100% 30.13" Hg 1020 hPa